createdAt,value
2018-06-20T00:02:10.483Z,36.37
2018-06-20T00:04:43.511Z,36.35
2018-06-20T00:07:16.267Z,36.36
2018-06-20T00:09:48.899Z,36.36
2018-06-20T00:12:21.666Z,36.37
2018-06-20T00:14:54.112Z,36.38
2018-06-20T00:17:26.286Z,36.38
2018-06-20T00:19:58.844Z,36.39
2018-06-20T00:22:31.095Z,36.39
2018-06-20T00:25:03.883Z,36.36
2018-06-20T00:27:36.255Z,36.33
2018-06-20T00:30:09.233Z,36.29
2018-06-20T00:32:41.641Z,36.32
2018-06-20T00:35:15.042Z,36.29
2018-06-20T00:37:49.007Z,36.30
2018-06-20T00:40:22.921Z,36.29
2018-06-20T00:42:55.635Z,36.32
2018-06-20T00:45:28.187Z,36.32
2018-06-20T00:48:01.128Z,36.33
2018-06-20T00:50:34.041Z,36.32
2018-06-20T00:53:06.807Z,36.32
2018-06-20T00:55:48.444Z,36.28
2018-06-20T00:58:20.176Z,36.29
2018-06-20T01:00:53.070Z,36.24
2018-06-20T01:03:25.429Z,36.26
2018-06-20T01:05:58.065Z,36.24
2018-06-20T01:08:31.195Z,36.25
2018-06-20T01:11:03.303Z,36.20
2018-06-20T01:13:36.413Z,36.22
2018-06-20T01:16:09.482Z,36.21
2018-06-20T01:18:42.797Z,36.21
2018-06-20T01:21:15.911Z,36.20
2018-06-20T01:23:48.736Z,36.20
2018-06-20T01:26:21.551Z,36.19
2018-06-20T01:28:54.243Z,36.18
2018-06-20T01:31:26.895Z,36.20
2018-06-20T01:33:59.340Z,36.21
2018-06-20T01:36:32.759Z,36.17
2018-06-20T01:39:09.189Z,36.18
2018-06-20T01:41:41.981Z,36.19
2018-06-20T01:44:13.955Z,36.17
2018-06-20T01:46:46.688Z,36.16
2018-06-20T01:49:18.892Z,36.17
2018-06-20T01:51:51.449Z,36.17
2018-06-20T01:54:23.631Z,36.16
2018-06-20T01:56:55.874Z,36.14
2018-06-20T01:59:28.137Z,36.14
2018-06-20T02:02:01.161Z,36.15
2018-06-20T02:04:34.050Z,36.15
2018-06-20T02:07:06.400Z,36.14
2018-06-20T02:09:38.456Z,36.13
2018-06-20T02:12:10.828Z,36.13
2018-06-20T02:14:43.641Z,36.12
2018-06-20T02:17:15.873Z,36.14
2018-06-20T02:19:48.755Z,36.11
2018-06-20T02:22:20.922Z,36.11
2018-06-20T02:24:53.527Z,36.12
2018-06-20T02:27:25.844Z,36.13
2018-06-20T02:29:58.940Z,36.12
2018-06-20T02:32:31.749Z,36.12
2018-06-20T02:35:04.123Z,36.12
2018-06-20T02:37:37.012Z,36.13
2018-06-20T02:40:09.453Z,36.13
2018-06-20T02:42:42.624Z,36.13
2018-06-20T02:45:15.930Z,36.10
2018-06-20T02:47:47.950Z,36.09
2018-06-20T02:50:20.885Z,36.08
2018-06-20T02:52:53.569Z,36.13
2018-06-20T02:55:26.106Z,36.11
2018-06-20T02:57:59.223Z,36.14
2018-06-20T03:00:31.675Z,36.12
2018-06-20T03:03:03.840Z,36.14
2018-06-20T03:05:36.049Z,36.14
2018-06-20T03:08:08.445Z,36.12
2018-06-20T03:10:41.480Z,36.13
2018-06-20T03:13:14.150Z,36.15
2018-06-20T03:15:46.143Z,36.17
2018-06-20T03:18:18.417Z,36.15
2018-06-20T03:20:50.791Z,36.17
2018-06-20T03:23:24.257Z,36.16
2018-06-20T03:25:56.529Z,36.17
2018-06-20T03:28:29.281Z,36.17
2018-06-20T03:31:01.274Z,36.16
2018-06-20T03:33:33.637Z,36.20
2018-06-20T03:36:05.792Z,36.20
2018-06-20T03:38:38.338Z,36.18
2018-06-20T03:41:11.371Z,36.19
2018-06-20T03:43:43.682Z,36.21
2018-06-20T03:46:15.880Z,36.21
2018-06-20T03:48:48.386Z,36.20
2018-06-20T03:51:20.663Z,36.20
2018-06-20T03:53:53.965Z,36.21
2018-06-20T03:56:26.081Z,36.21
2018-06-20T03:58:58.938Z,36.26
2018-06-20T04:01:31.474Z,36.28
2018-06-20T04:04:04.787Z,36.27
2018-06-20T04:06:36.487Z,36.29
2018-06-20T04:09:13.977Z,36.33
2018-06-20T04:11:46.404Z,36.30
2018-06-20T04:14:19.497Z,36.32
2018-06-20T04:16:52.424Z,36.32
2018-06-20T04:19:26.205Z,36.28
2018-06-20T04:21:58.739Z,36.28
2018-06-20T04:24:31.511Z,36.27
2018-06-20T04:27:03.561Z,36.26
2018-06-20T04:29:36.636Z,36.33
2018-06-20T04:32:09.866Z,36.27
2018-06-20T04:34:42.100Z,36.33
2018-06-20T04:37:15.504Z,36.32
2018-06-20T04:39:47.739Z,36.32
2018-06-20T04:42:20.799Z,36.34
2018-06-20T04:44:54.369Z,36.37
2018-06-20T04:47:27.568Z,36.38
2018-06-20T04:50:00.605Z,36.28
2018-06-20T04:52:33.949Z,35.76
2018-06-20T04:55:07.232Z,35.54
2018-06-20T04:57:40.339Z,35.81
2018-06-20T05:00:12.926Z,36.09
2018-06-20T05:02:45.180Z,36.16
2018-06-20T05:05:17.995Z,36.25
2018-06-20T05:07:50.629Z,36.25
2018-06-20T05:10:23.055Z,36.29
2018-06-20T05:12:55.959Z,36.32
2018-06-20T05:15:28.405Z,36.35
2018-06-20T05:18:00.660Z,36.39
2018-06-20T05:20:33.727Z,36.36
2018-06-20T05:23:06.080Z,36.30
2018-06-20T05:25:39.102Z,36.35
2018-06-20T05:28:11.673Z,36.47
2018-06-20T05:30:48.799Z,36.23
2018-06-20T05:33:22.184Z,36.17
2018-06-20T05:35:55.105Z,36.34
2018-06-20T05:38:27.628Z,36.45
2018-06-20T05:41:00.533Z,36.47
2018-06-20T05:43:34.202Z,36.48
2018-06-20T05:46:06.808Z,36.52
2018-06-20T05:48:40.124Z,36.53
2018-06-20T05:51:13.056Z,36.55
2018-06-20T05:53:45.653Z,36.53
2018-06-20T05:56:18.818Z,36.55
2018-06-20T05:58:51.831Z,36.59
2018-06-20T06:01:25.167Z,36.66
2018-06-20T06:03:57.804Z,36.62
2018-06-20T06:06:30.894Z,36.64
2018-06-20T06:09:07.059Z,36.67
2018-06-20T06:11:40.157Z,36.67
2018-06-20T06:14:12.171Z,36.72
2018-06-20T06:16:45.202Z,36.69
2018-06-20T06:19:18.636Z,36.72
2018-06-20T06:21:51.218Z,36.74
2018-06-20T06:24:24.077Z,36.84
2018-06-20T06:26:57.121Z,36.79
2018-06-20T06:29:30.167Z,36.80
2018-06-20T06:32:02.812Z,36.79
2018-06-20T06:34:35.722Z,36.94
2018-06-20T06:37:08.711Z,36.84
2018-06-20T06:39:40.651Z,36.90
2018-06-20T06:42:14.048Z,36.85
2018-06-20T06:44:46.719Z,36.87
2018-06-20T06:47:20.105Z,36.88
2018-06-20T06:49:52.162Z,36.90
2018-06-20T06:52:25.791Z,36.92
2018-06-20T06:54:59.362Z,36.92
2018-06-20T06:57:33.316Z,36.93
2018-06-20T07:00:06.689Z,36.95
2018-06-20T07:02:39.740Z,37.00
2018-06-20T07:05:12.549Z,37.00
2018-06-20T07:07:45.195Z,37.00
2018-06-20T07:10:17.745Z,37.00
2018-06-20T07:12:49.912Z,37.05
2018-06-20T07:15:22.342Z,37.06
2018-06-20T07:17:55.758Z,37.00
2018-06-20T07:20:28.099Z,36.85
2018-06-20T07:23:01.764Z,37.25
2018-06-20T07:31:16.822Z,37.20
2018-06-20T07:33:49.832Z,37.25
2018-06-20T07:36:22.745Z,37.17
2018-06-20T07:38:55.866Z,37.16
2018-06-20T07:41:28.063Z,37.14
2018-06-20T07:44:01.329Z,37.10
2018-06-20T07:46:33.417Z,37.13
2018-06-20T07:49:06.386Z,37.17
2018-06-20T07:51:38.796Z,37.14
2018-06-20T07:54:11.965Z,37.19
2018-06-20T07:56:44.981Z,37.16
2018-06-20T07:59:17.767Z,37.21
2018-06-20T08:02:04.214Z,37.19
2018-06-20T08:04:45.805Z,37.21
2018-06-20T08:07:28.948Z,37.16
2018-06-20T08:10:08.617Z,37.31
2018-06-20T08:12:47.467Z,37.29
2018-06-20T08:15:25.335Z,37.24
2018-06-20T08:18:02.721Z,37.23
2018-06-20T08:20:36.146Z,37.23
2018-06-20T08:23:09.614Z,37.28
2018-06-20T08:25:42.692Z,37.28
2018-06-20T08:28:21.034Z,37.37
2018-06-20T08:30:55.364Z,37.41
2018-06-20T08:33:34.896Z,37.40
2018-06-20T08:36:08.724Z,37.44
2018-06-20T08:38:42.054Z,37.42
2018-06-20T08:41:25.520Z,37.34
2018-06-20T08:44:06.697Z,37.30
2018-06-20T08:46:52.758Z,37.32
2018-06-20T08:49:25.988Z,37.36
2018-06-20T08:51:58.808Z,37.38
2018-06-20T08:54:37.884Z,37.33
2018-06-20T08:57:11.062Z,37.31
2018-06-20T08:59:43.942Z,37.33
2018-06-20T09:02:22.124Z,37.41
2018-06-20T09:04:59.195Z,37.50
2018-06-20T09:07:36.782Z,37.63
2018-06-20T09:10:14.295Z,37.57
2018-06-20T09:12:51.424Z,37.68
2018-06-20T09:15:27.669Z,37.68
2018-06-20T09:18:04.877Z,37.62
2018-06-20T09:20:42.678Z,37.59
2018-06-20T09:23:15.712Z,37.54
2018-06-20T09:25:49.162Z,37.53
2018-06-20T09:28:26.433Z,37.48
2018-06-20T09:31:01.007Z,37.32
2018-06-20T09:33:33.926Z,37.52
2018-06-20T09:36:08.272Z,37.62
2018-06-20T09:38:42.317Z,37.59
2018-06-20T09:41:19.237Z,37.55
2018-06-20T09:43:52.507Z,37.58
2018-06-20T09:46:31.152Z,37.68
2018-06-20T09:49:11.598Z,37.71
2018-06-20T09:51:44.510Z,37.67
2018-06-20T09:54:18.356Z,37.80
2018-06-20T09:56:50.810Z,37.74
2018-06-20T09:59:28.865Z,37.76
2018-06-20T10:02:06.484Z,37.73
2018-06-20T10:04:44.298Z,37.73
2018-06-20T10:07:28.428Z,37.76
2018-06-20T10:10:05.386Z,37.80
2018-06-20T10:12:42.639Z,37.80
2018-06-20T10:15:15.347Z,37.88
2018-06-20T10:17:48.496Z,37.88
2018-06-20T10:20:34.976Z,37.88
2018-06-20T10:23:19.497Z,37.88
2018-06-20T10:26:03.375Z,37.89
2018-06-20T10:28:48.035Z,37.93
2018-06-20T10:31:32.026Z,37.99
2018-06-20T10:34:15.528Z,37.93
2018-06-20T10:36:59.992Z,37.91
2018-06-20T10:39:43.148Z,37.97
2018-06-20T10:42:25.465Z,38.00
2018-06-20T10:45:02.321Z,37.94
2018-06-20T10:47:38.358Z,38.00
2018-06-20T10:50:10.443Z,37.98
2018-06-20T10:52:42.444Z,38.03
2018-06-20T10:55:16.321Z,38.05
2018-06-20T10:57:52.744Z,38.05
2018-06-20T11:00:29.627Z,38.06
2018-06-20T11:03:06.360Z,38.03
2018-06-20T11:05:43.559Z,38.06
2018-06-20T11:08:20.038Z,38.06
2018-06-20T11:10:56.434Z,38.08
2018-06-20T11:13:29.385Z,38.11
2018-06-20T11:16:01.966Z,38.11
2018-06-20T11:18:36.991Z,38.14
2018-06-20T11:21:10.203Z,38.11
2018-06-20T11:23:42.392Z,38.11
2018-06-20T11:26:15.425Z,38.09
2018-06-20T11:28:47.626Z,38.10
2018-06-20T11:34:12.882Z,38.08
2018-06-20T11:36:47.441Z,38.12
2018-06-20T11:39:20.215Z,38.15
2018-06-20T11:41:53.235Z,38.16
2018-06-20T11:44:25.959Z,38.12
2018-06-20T11:47:02.678Z,38.15
2018-06-20T11:49:35.790Z,38.20
2018-06-20T11:52:12.739Z,38.24
2018-06-20T11:54:45.094Z,38.20
2018-06-20T11:57:18.873Z,38.21
2018-06-20T11:59:55.935Z,38.21
2018-06-20T12:02:34.492Z,38.22
2018-06-20T12:05:12.152Z,38.24
2018-06-20T12:07:49.592Z,38.27
2018-06-20T12:10:26.765Z,38.25
2018-06-20T12:13:03.742Z,38.27
2018-06-20T12:15:41.087Z,38.28
2018-06-20T12:18:17.315Z,38.31
2018-06-20T12:20:54.344Z,38.34
2018-06-20T12:23:31.691Z,38.32
2018-06-20T12:26:08.939Z,38.29
2018-06-20T12:28:45.875Z,38.28
2018-06-20T12:31:23.043Z,38.25
2018-06-20T12:34:03.931Z,38.26
2018-06-20T12:36:40.673Z,38.25
2018-06-20T12:39:12.223Z,38.25
2018-06-20T12:41:49.073Z,38.24
2018-06-20T12:44:26.375Z,38.24
2018-06-20T12:47:07.197Z,38.27
2018-06-20T12:49:43.517Z,38.27
2018-06-20T12:52:17.330Z,38.31
2018-06-20T12:54:49.727Z,38.31
2018-06-20T12:57:22.706Z,38.30
2018-06-20T12:59:59.197Z,38.31
2018-06-20T13:02:33.075Z,38.28
2018-06-20T13:05:05.233Z,38.31
2018-06-20T13:07:38.670Z,38.29
2018-06-20T13:10:10.762Z,38.28
2018-06-20T13:12:44.553Z,38.18
2018-06-20T13:15:16.326Z,37.89
2018-06-20T13:17:49.400Z,38.07
2018-06-20T13:20:22.475Z,38.12
2018-06-20T13:22:55.753Z,38.16
2018-06-20T13:25:28.082Z,38.18
2018-06-20T13:28:00.610Z,38.19
2018-06-20T13:30:33.693Z,38.20
2018-06-20T13:33:12.271Z,38.19
2018-06-20T13:35:48.756Z,38.20
2018-06-20T13:38:25.745Z,38.21
2018-06-20T13:41:03.598Z,38.21
2018-06-20T13:43:41.532Z,38.20
2018-06-20T13:46:18.904Z,38.20
2018-06-20T13:48:51.613Z,38.06
2018-06-20T13:51:24.771Z,38.14
2018-06-20T13:53:57.248Z,38.18
2018-06-20T13:56:30.177Z,38.20
2018-06-20T13:59:04.779Z,38.21
2018-06-20T14:01:37.340Z,38.21
2018-06-20T14:04:09.699Z,38.21
2018-06-20T14:06:42.042Z,38.22
2018-06-20T14:09:14.538Z,38.22
2018-06-20T14:11:46.990Z,38.21
2018-06-20T14:14:19.358Z,38.21
2018-06-20T14:16:52.311Z,38.21
2018-06-20T14:19:29.823Z,38.21
2018-06-20T14:22:02.594Z,38.22
2018-06-20T14:24:35.474Z,38.24
2018-06-20T14:27:07.544Z,38.24
2018-06-20T14:29:45.026Z,38.24
2018-06-20T14:32:22.851Z,38.24
2018-06-20T14:35:01.065Z,38.26
2018-06-20T14:37:37.902Z,38.26
2018-06-20T14:40:14.849Z,38.25
2018-06-20T14:42:52.321Z,38.25
2018-06-20T14:45:29.142Z,38.29
2018-06-20T14:48:01.806Z,38.25
2018-06-20T14:50:34.213Z,38.25
2018-06-20T14:53:06.865Z,38.24
2018-06-20T14:55:39.347Z,38.21
2018-06-20T14:58:11.724Z,38.20
2018-06-20T15:00:44.316Z,38.20
2018-06-20T15:03:16.662Z,38.20
2018-06-20T15:05:50.225Z,38.20
2018-06-20T15:08:22.918Z,38.20
2018-06-20T15:10:55.455Z,38.21
2018-06-20T15:13:28.157Z,38.19
2018-06-20T15:16:05.859Z,38.21
2018-06-20T15:18:38.407Z,38.22
2018-06-20T15:21:11.320Z,38.23
2018-06-20T15:23:43.768Z,38.23
2018-06-20T15:26:21.973Z,38.23
2018-06-20T15:28:59.675Z,38.22
2018-06-20T15:31:36.279Z,38.24
2018-06-20T15:34:13.659Z,38.23
2018-06-20T15:36:52.531Z,38.26
2018-06-20T15:39:25.566Z,38.19
2018-06-20T15:41:59.164Z,38.20
2018-06-20T15:44:32.959Z,38.22
2018-06-20T15:47:07.087Z,38.22
2018-06-20T15:49:40.143Z,38.21
2018-06-20T15:52:12.438Z,38.22
2018-06-20T15:54:45.434Z,38.20
2018-06-20T15:57:18.647Z,38.12
2018-06-20T15:59:51.955Z,38.16
2018-06-20T16:02:25.314Z,38.20
2018-06-20T16:04:57.849Z,38.23
2018-06-20T16:07:30.853Z,38.23
2018-06-20T16:10:03.905Z,38.23
2018-06-20T16:12:36.996Z,38.22
2018-06-20T16:15:10.225Z,38.24
2018-06-20T16:17:42.709Z,38.25
2018-06-20T16:22:24.110Z,38.26
2018-06-20T16:25:02.032Z,38.27
2018-06-20T16:29:48.185Z,38.25
2018-06-20T16:32:22.603Z,38.24
2018-06-20T16:34:54.931Z,38.24
2018-06-20T16:37:29.289Z,38.23
2018-06-20T16:40:03.397Z,38.23
2018-06-20T16:42:36.404Z,38.23
2018-06-20T16:45:09.134Z,38.22
2018-06-20T16:47:41.804Z,38.22
2018-06-20T16:50:15.814Z,38.23
2018-06-20T16:52:49.451Z,38.24
2018-06-20T16:55:22.602Z,38.24
2018-06-20T16:57:55.061Z,38.24
2018-06-20T17:00:27.358Z,38.24
2018-06-20T17:03:01.256Z,38.24
2018-06-20T17:05:35.421Z,38.25
2018-06-20T17:08:08.118Z,38.25
2018-06-20T17:10:40.602Z,38.24
2018-06-20T17:13:18.001Z,38.25
2018-06-20T17:16:55.827Z,38.23
2018-06-20T17:19:33.574Z,37.85
2018-06-20T17:22:11.037Z,37.79
2018-06-20T17:24:48.482Z,37.99
2018-06-20T17:27:21.044Z,38.09
2018-06-20T17:29:54.593Z,38.11
2018-06-20T17:32:27.324Z,38.13
2018-06-20T17:35:00.085Z,38.15
2018-06-20T17:37:34.053Z,38.16
2018-06-20T17:40:07.991Z,38.17
2018-06-20T17:42:41.044Z,38.17
2018-06-20T17:45:13.883Z,38.17
2018-06-20T17:47:46.328Z,38.18
2018-06-20T17:50:19.215Z,38.18
2018-06-20T17:52:51.634Z,38.18
2018-06-20T17:55:24.230Z,38.18
2018-06-20T17:57:57.371Z,38.16
2018-06-20T18:00:30.249Z,38.17
2018-06-20T18:03:03.236Z,38.16
2018-06-20T18:05:40.594Z,38.15
2018-06-20T18:08:17.540Z,38.15
2018-06-20T18:10:54.745Z,37.66
2018-06-20T18:13:31.993Z,37.90
2018-06-20T18:16:09.066Z,38.01
2018-06-20T18:18:41.256Z,38.05
2018-06-20T18:21:14.460Z,38.07
2018-06-20T18:23:47.279Z,38.07
2018-06-20T18:26:20.336Z,38.10
2018-06-20T18:28:52.705Z,38.10
2018-06-20T18:31:25.884Z,38.12
2018-06-20T18:33:57.785Z,38.10
2018-06-20T18:36:29.907Z,38.09
2018-06-20T18:39:04.158Z,38.10
2018-06-20T18:41:36.721Z,38.13
2018-06-20T18:44:08.711Z,38.13
2018-06-20T18:46:41.365Z,38.13
2018-06-20T18:49:14.450Z,38.15
2018-06-20T18:51:46.805Z,38.13
2018-06-20T18:54:19.606Z,38.12
2018-06-20T18:56:52.548Z,38.13
2018-06-20T18:59:29.281Z,38.13
2018-06-20T19:02:06.205Z,38.14
2018-06-20T19:04:43.882Z,38.15
2018-06-20T19:07:20.838Z,38.15
2018-06-20T19:09:53.117Z,38.16
2018-06-20T19:12:25.908Z,38.15
2018-06-20T19:14:57.831Z,38.16
2018-06-20T19:17:30.496Z,38.15
2018-06-20T19:20:02.763Z,38.15
2018-06-20T19:22:36.010Z,38.15
2018-06-20T19:25:09.727Z,38.16
2018-06-20T19:27:43.871Z,38.16
2018-06-20T19:30:17.068Z,38.16
2018-06-20T19:32:49.878Z,38.15
2018-06-20T19:35:22.193Z,38.13
2018-06-20T19:37:54.952Z,37.90
2018-06-20T19:40:29.095Z,37.97
2018-06-20T19:43:01.748Z,38.04
2018-06-20T19:45:34.581Z,38.06
2018-06-20T19:48:07.333Z,38.09
2018-06-20T19:50:39.526Z,38.09
2018-06-20T19:53:12.187Z,38.08
2018-06-20T19:55:44.082Z,38.09
2018-06-20T19:58:17.210Z,38.09
2018-06-20T20:00:49.486Z,38.09
2018-06-20T20:03:22.336Z,38.08
2018-06-20T20:05:55.080Z,38.09
2018-06-20T20:08:28.087Z,38.10
2018-06-20T20:11:00.534Z,38.09
2018-06-20T20:13:33.692Z,38.10
2018-06-20T20:16:05.989Z,38.11
2018-06-20T20:18:38.566Z,38.10
2018-06-20T20:21:10.901Z,38.09
2018-06-20T20:23:43.763Z,38.08
2018-06-20T20:26:15.854Z,38.08
2018-06-20T20:28:48.432Z,38.06
2018-06-20T20:31:20.769Z,38.06
2018-06-20T20:33:54.883Z,38.06
2018-06-20T20:36:27.288Z,38.06
2018-06-20T20:39:00.126Z,38.05
2018-06-20T20:41:33.649Z,38.05
2018-06-20T20:44:06.843Z,38.05
2018-06-20T20:46:40.048Z,38.04
2018-06-20T20:49:13.046Z,38.05
2018-06-20T20:51:46.046Z,38.06
2018-06-20T20:54:18.799Z,38.06
2018-06-20T20:56:51.405Z,38.05
2018-06-20T20:59:23.376Z,38.06
2018-06-20T21:01:56.274Z,38.06
2018-06-20T21:04:29.018Z,38.06
2018-06-20T21:07:01.912Z,38.06
2018-06-20T21:09:35.012Z,38.05
2018-06-20T21:12:08.285Z,38.04
2018-06-20T21:14:41.668Z,38.02
2018-06-20T21:17:14.117Z,38.03
2018-06-20T21:19:46.936Z,38.02
2018-06-20T21:22:20.030Z,38.00
2018-06-20T21:24:53.504Z,38.00
2018-06-20T21:27:26.027Z,37.98
2018-06-20T21:29:59.250Z,37.98
2018-06-20T21:32:31.912Z,37.97
2018-06-20T21:35:05.354Z,37.98
2018-06-20T21:37:38.020Z,37.99
2018-06-20T21:40:14.172Z,37.97
2018-06-20T21:42:47.664Z,37.97
2018-06-20T21:45:20.240Z,37.98
2018-06-20T21:47:52.964Z,37.98
2018-06-20T21:50:25.650Z,37.98
2018-06-20T21:52:58.302Z,37.98
2018-06-20T21:55:31.254Z,37.97
2018-06-20T21:58:04.438Z,37.97
2018-06-20T22:00:37.505Z,37.96
2018-06-20T22:03:10.940Z,37.95
2018-06-20T22:05:43.900Z,37.95
2018-06-20T22:08:17.364Z,37.94
2018-06-20T22:10:51.167Z,37.92
2018-06-20T22:13:24.162Z,37.91
2018-06-20T22:15:58.510Z,37.89
2018-06-20T22:18:31.742Z,37.89
2018-06-20T22:21:04.952Z,37.87
2018-06-20T22:23:37.543Z,37.87
2018-06-20T22:26:10.447Z,37.89
2018-06-20T22:28:43.329Z,37.89
2018-06-20T22:31:16.779Z,37.89
2018-06-20T22:33:49.781Z,37.88
2018-06-20T22:36:23.053Z,37.89
2018-06-20T22:38:56.794Z,37.88
2018-06-20T22:41:30.093Z,37.88
2018-06-20T22:44:03.457Z,37.88
2018-06-20T22:46:36.513Z,37.86
2018-06-20T22:49:10.291Z,37.86
2018-06-20T22:51:43.505Z,37.84
2018-06-20T22:54:16.731Z,37.82
2018-06-20T22:56:50.083Z,37.80
2018-06-20T22:59:23.107Z,37.81
2018-06-20T23:01:56.349Z,37.79
2018-06-20T23:04:29.270Z,37.79
2018-06-20T23:07:02.734Z,37.77
2018-06-20T23:09:36.315Z,37.77
2018-06-20T23:12:09.219Z,37.76
2018-06-20T23:14:42.589Z,37.76
2018-06-20T23:17:15.936Z,37.78
2018-06-20T23:19:48.828Z,37.77
2018-06-20T23:22:22.276Z,37.79
2018-06-20T23:24:55.103Z,37.78
2018-06-20T23:27:27.967Z,37.80
2018-06-20T23:30:01.601Z,37.78
2018-06-20T23:32:34.223Z,37.78
2018-06-20T23:35:08.342Z,37.76
2018-06-20T23:37:41.913Z,37.77
2018-06-20T23:40:14.275Z,37.76
2018-06-20T23:42:47.852Z,37.75
2018-06-20T23:45:21.499Z,37.73
2018-06-20T23:47:54.893Z,37.74
2018-06-20T23:50:28.121Z,37.70
2018-06-20T23:53:01.811Z,37.69
2018-06-20T23:55:34.860Z,37.67
2018-06-20T23:58:08.376Z,37.65
